Time;durP1;ratioP1;P1;durP2;ratioP2;P2;SDS_P1;SDS_P2;PMS_P1;PMS_P2;Temp;Humidity;BMP_temperature;BMP_pressure;BME280_temperature;BME280_humidity;BME280_pressure;Samples;Min_cycle;Max_cycle;Signal;HPM_P1;HPM_P2
2023/05/19 00:01:42;;;;;;;5.72;1.90;;;;;;;9.68;78.21;102834.56;5082131;28;20024;-68
2023/05/19 00:04:11;;;;;;;4.35;1.58;;;;;;;9.64;78.87;102828.63;5089646;28;20051;-68
2023/05/19 00:06:37;;;;;;;5.07;1.60;;;;;;;9.64;78.59;102834.00;5093454;28;20104;-68
2023/05/19 00:09:05;;;;;;;4.45;1.80;;;;;;;9.70;78.29;102829.88;5100629;28;20073;-68
2023/05/19 00:11:32;;;;;;;5.38;1.90;;;;;;;9.71;78.64;102828.91;5099788;28;20027;-67
2023/05/19 00:13:59;;;;;;;3.92;1.63;;;;;;;9.73;78.58;102833.13;5079559;28;20090;-68
2023/05/19 00:16:26;;;;;;;4.57;1.67;;;;;;;9.75;78.44;102831.16;5080823;28;20031;-67
2023/05/19 00:18:53;;;;;;;4.45;1.90;;;;;;;9.64;79.10;102812.50;5083720;28;20091;-68
2023/05/19 00:21:19;;;;;;;6.18;1.95;;;;;;;9.74;79.01;102831.31;5083777;28;20425;-67
2023/05/19 00:23:44;;;;;;;5.82;1.95;;;;;;;9.73;79.81;102834.97;5102265;28;20040;-67
2023/05/19 00:26:10;;;;;;;6.38;1.67;;;;;;;9.61;80.35;102815.47;5103049;28;20055;-68
2023/05/19 00:28:36;;;;;;;5.72;1.90;;;;;;;9.72;80.36;102835.97;5108347;28;20061;-68
2023/05/19 00:31:03;;;;;;;6.38;2.20;;;;;;;9.70;80.32;102836.13;5084371;28;20043;-68
2023/05/19 00:33:28;;;;;;;5.20;2.05;;;;;;;9.74;79.92;102834.84;5083097;28;20104;-68
2023/05/19 00:35:54;;;;;;;7.90;2.58;;;;;;;9.75;80.94;102835.69;5080944;28;20036;-68
2023/05/19 00:38:20;;;;;;;5.75;2.30;;;;;;;9.77;80.42;102836.41;5064209;28;20080;-68
2023/05/19 00:40:45;;;;;;;8.00;2.20;;;;;;;9.74;80.95;102839.38;5062130;28;20379;-67
2023/05/19 00:43:11;;;;;;;9.20;2.55;;;;;;;9.73;80.92;102843.88;5065932;28;20028;-67
2023/05/19 00:45:36;;;;;;;4.63;2.05;;;;;;;9.73;81.79;102845.72;5110820;28;20024;-68
2023/05/19 00:48:02;;;;;;;8.27;2.70;;;;;;;9.73;81.75;102838.50;5110626;28;20035;-68
2023/05/19 00:50:28;;;;;;;5.43;2.22;;;;;;;9.75;81.27;102838.38;5116588;28;20020;-68
2023/05/19 00:52:55;;;;;;;7.50;2.40;;;;;;;9.71;81.51;102840.50;5100173;28;20020;-68
2023/05/19 00:55:26;;;;;;;7.60;2.08;;;;;;;9.70;81.43;102841.50;5081421;28;20031;-68
2023/05/19 00:57:53;;;;;;;6.13;2.42;;;;;;;9.67;82.43;102841.78;5099494;28;20047;-68
2023/05/19 01:00:18;;;;;;;5.65;2.30;;;;;;;9.67;82.03;102833.72;5081100;28;20055;-68
2023/05/19 01:02:44;;;;;;;4.60;2.13;;;;;;;9.59;82.07;102825.50;5098201;28;20138;-67
2023/05/19 01:05:10;;;;;;;5.68;2.47;;;;;;;9.16;82.64;102770.38;5079690;28;20079;-67
2023/05/19 01:07:37;;;;;;;3.72;2.00;;;;;;;9.61;82.22;102839.66;5079239;28;20028;-67
2023/05/19 01:10:03;;;;;;;6.50;1.90;;;;;;;9.44;82.47;102819.75;5063467;28;20122;-68
2023/05/19 01:12:29;;;;;;;4.55;2.10;;;;;;;9.58;82.71;102842.66;5081180;28;20024;-67
2023/05/19 01:14:55;;;;;;;6.93;2.10;;;;;;;9.55;82.78;102834.88;5080382;28;20034;-68
2023/05/19 01:17:29;;;;;;;5.93;1.85;;;;;;;9.56;82.58;102840.06;5098806;28;20046;-67
2023/05/19 01:20:00;;;;;;;4.75;2.00;;;;;;;9.51;83.24;102841.53;5098402;28;20111;-68
2023/05/19 01:23:03;;;;;;;6.55;2.28;;;;;;;9.51;83.38;102845.06;5097733;28;20441;-67
2023/05/19 01:25:50;;;;;;;7.82;2.40;;;;;;;9.51;83.04;102839.69;5096013;28;20023;-68
2023/05/19 01:29:01;;;;;;;7.25;2.30;;;;;;;9.53;83.88;102851.13;5076023;28;20020;-68
2023/05/19 01:31:27;;;;;;;9.07;2.70;;;;;;;9.53;83.30;102842.19;4999506;28;20034;-68
2023/05/19 01:33:54;;;;;;;7.13;2.40;;;;;;;9.50;83.20;102853.25;5102639;28;20036;-68
2023/05/19 01:36:21;;;;;;;5.72;2.50;;;;;;;9.55;83.68;102849.13;5102888;28;20034;-67
2023/05/19 01:38:50;;;;;;;6.32;1.85;;;;;;;9.50;83.62;102846.03;5080525;28;20032;-67
2023/05/19 01:41:19;;;;;;;5.18;2.35;;;;;;;9.50;84.19;102848.72;5080109;28;20097;-67
2023/05/19 01:43:46;;;;;;;6.30;2.45;;;;;;;9.43;83.92;102850.25;5099159;28;20020;-67
2023/05/19 01:46:12;;;;;;;6.55;2.53;;;;;;;9.37;84.59;102854.38;5078473;28;20036;-68
2023/05/19 01:48:38;;;;;;;6.60;2.67;;;;;;;9.37;84.30;102858.88;5079999;28;20031;-67
2023/05/19 01:51:04;;;;;;;5.82;2.33;;;;;;;9.35;83.95;102858.19;5080267;28;20028;-67
2023/05/19 01:53:29;;;;;;;7.25;2.20;;;;;;;9.29;84.26;102856.91;5097627;28;20054;-67
2023/05/19 01:55:56;;;;;;;6.32;2.50;;;;;;;9.16;84.17;102842.91;5063744;28;20040;-67
2023/05/19 01:58:41;;;;;;;6.55;2.63;;;;;;;9.20;84.08;102848.84;5079914;28;20062;-67
2023/05/19 02:01:29;;;;;;;5.30;2.90;;;;;;;9.20;84.93;102841.63;5080102;28;20056;-67
2023/05/19 02:04:17;;;;;;;6.85;3.25;;;;;;;9.27;84.53;102852.66;5079894;28;20028;-67
2023/05/19 02:06:59;;;;;;;9.50;3.92;;;;;;;9.28;84.69;102857.91;5098312;28;20406;-67
2023/05/19 02:09:58;;;;;;;9.15;4.13;;;;;;;9.32;84.77;102853.94;5098156;28;20031;-67
2023/05/19 02:12:32;;;;;;;8.88;3.47;;;;;;;9.29;84.87;102851.53;5078680;28;20524;-68
2023/05/19 02:15:06;;;;;;;5.65;3.38;;;;;;;9.27;84.75;102856.22;5098053;28;20037;-67
2023/05/19 02:17:35;;;;;;;12.65;3.78;;;;;;;9.22;84.37;102844.19;5098000;28;20395;-67
2023/05/19 02:20:01;;;;;;;7.28;3.25;;;;;;;9.22;85.24;102852.25;5097709;28;20054;-68
2023/05/19 02:22:26;;;;;;;7.88;3.40;;;;;;;9.29;85.00;102848.00;5079489;28;20471;-68
2023/05/19 02:24:52;;;;;;;9.63;3.30;;;;;;;9.27;84.41;102840.09;5079729;28;20028;-67
2023/05/19 02:27:17;;;;;;;7.47;3.22;;;;;;;9.21;84.43;102850.56;5097782;28;20031;-67
2023/05/19 02:29:43;;;;;;;10.10;3.55;;;;;;;9.20;85.39;102841.63;5078610;28;20414;-68
2023/05/19 02:32:10;;;;;;;11.45;3.60;;;;;;;9.20;85.35;102849.69;5096510;28;20031;-68
2023/05/19 02:34:35;;;;;;;7.13;3.30;;;;;;;9.16;85.26;102848.28;5094794;28;20490;-68
2023/05/19 02:37:01;;;;;;;9.23;3.42;;;;;;;9.02;85.29;102829.91;5095930;28;20127;-67
2023/05/19 02:39:28;;;;;;;9.57;3.90;;;;;;;9.17;85.56;102849.97;5045866;28;20091;-67
2023/05/19 02:41:53;;;;;;;8.07;4.10;;;;;;;9.23;85.55;102854.78;5079181;28;20100;-67
2023/05/19 02:44:18;;;;;;;9.13;4.30;;;;;;;9.29;86.01;102856.06;5079457;28;20028;-68
2023/05/19 02:46:44;;;;;;;11.40;4.55;;;;;;;9.37;85.54;102853.50;5079895;28;20024;-68
2023/05/19 02:49:10;;;;;;;8.57;4.32;;;;;;;9.38;85.55;102848.03;5064303;28;20024;-68
2023/05/19 02:51:35;;;;;;;10.82;4.25;;;;;;;9.46;85.78;102849.13;5077038;28;20028;-67
2023/05/19 02:54:00;;;;;;;9.55;4.32;;;;;;;9.53;85.70;102864.56;5097131;28;20040;-67
2023/05/19 02:56:27;;;;;;;10.77;4.30;;;;;;;9.58;85.67;102861.47;5062331;28;20028;-67
2023/05/19 02:58:52;;;;;;;10.20;4.20;;;;;;;9.52;85.83;102836.00;5078631;28;20460;-68
2023/05/19 03:01:20;;;;;;;7.80;4.40;;;;;;;9.74;85.40;102859.03;5097452;28;20024;-67
2023/05/19 03:03:45;;;;;;;8.68;4.00;;;;;;;10.10;84.34;102853.88;5097435;28;20490;-67
2023/05/19 03:06:11;;;;;;;9.20;4.05;;;;;;;10.49;83.24;102848.38;5079302;28;20036;-67
2023/05/19 03:08:37;;;;;;;10.90;3.92;;;;;;;10.68;82.11;102856.38;5096900;28;20043;-67
2023/05/19 03:11:02;;;;;;;9.90;4.18;;;;;;;10.90;81.65;102859.66;5079293;28;20032;-67
2023/05/19 03:13:28;;;;;;;10.00;4.00;;;;;;;11.02;81.05;102842.25;5096558;28;20067;-67
2023/05/19 03:15:55;;;;;;;7.80;3.63;;;;;;;11.26;80.09;102849.78;5096976;28;20142;-67
2023/05/19 03:18:23;;;;;;;9.77;3.95;;;;;;;11.36;79.77;102833.53;5096071;28;20498;-67
2023/05/19 03:20:49;;;;;;;12.73;4.13;;;;;;;11.62;79.14;102836.25;5061853;28;20032;-67
2023/05/19 03:23:14;;;;;;;9.02;3.58;;;;;;;11.93;77.98;102850.19;5075690;28;20027;-68
2023/05/19 03:25:39;;;;;;;7.60;3.20;;;;;;;12.17;77.06;102858.44;5096446;28;20110;-67
2023/05/19 03:28:05;;;;;;;7.20;3.70;;;;;;;12.45;76.13;102851.00;5096872;28;20020;-68
2023/05/19 03:30:30;;;;;;;6.07;3.35;;;;;;;12.79;74.96;102849.28;5079383;28;20099;-68
2023/05/19 03:32:56;;;;;;;7.20;3.45;;;;;;;13.05;74.07;102832.97;5079415;28;20033;-67
2023/05/19 03:35:21;;;;;;;8.25;3.65;;;;;;;13.51;72.87;102853.19;5063081;28;20040;-68
2023/05/19 03:37:47;;;;;;;7.60;3.40;;;;;;;13.94;71.79;102851.13;5081437;28;20031;-68
2023/05/19 03:40:12;;;;;;;6.90;3.60;;;;;;;14.30;70.64;102859.69;5102106;28;20035;-67
2023/05/19 03:42:38;;;;;;;8.75;3.45;;;;;;;14.59;69.70;102852.81;5082741;28;20031;-68
2023/05/19 03:45:04;;;;;;;7.32;3.40;;;;;;;14.87;68.98;102847.78;5082500;28;20028;-68
2023/05/19 03:47:30;;;;;;;6.20;3.05;;;;;;;15.27;67.68;102864.84;5065548;28;20032;-68
2023/05/19 03:49:55;;;;;;;7.82;2.90;;;;;;;15.57;67.19;102854.94;5082572;28;20032;-68
2023/05/19 03:52:21;;;;;;;6.93;3.50;;;;;;;15.86;65.82;102845.19;5083123;28;20042;-68
2023/05/19 03:54:46;;;;;;;8.25;3.22;;;;;;;16.33;64.94;102865.78;5082916;28;20054;-68
2023/05/19 03:57:13;;;;;;;8.82;3.13;;;;;;;16.60;64.09;102870.53;5100808;28;20038;-68
2023/05/19 03:59:40;;;;;;;6.60;3.20;;;;;;;16.79;63.43;102861.00;5082200;28;20070;-68
2023/05/19 04:02:05;;;;;;;6.72;3.25;;;;;;;16.98;62.69;102866.84;5082907;28;20077;-68
2023/05/19 04:04:31;;;;;;;11.65;3.95;;;;;;;17.08;62.14;102870.09;5101385;28;20028;-68
2023/05/19 04:06:57;;;;;;;6.85;3.20;;;;;;;17.27;61.52;102865.94;5084252;28;20053;-68
2023/05/19 04:09:22;;;;;;;5.47;3.15;;;;;;;17.44;60.89;102869.22;5099184;28;20510;-68
2023/05/19 04:11:48;;;;;;;7.72;3.17;;;;;;;17.65;60.08;102866.50;5078947;28;20027;-68
2023/05/19 04:14:14;;;;;;;7.03;2.90;;;;;;;17.74;59.29;102851.69;5098618;28;20063;-68
2023/05/19 04:16:40;;;;;;;11.52;3.75;;;;;;;17.95;58.91;102863.66;5081932;28;20098;-68
2023/05/19 04:19:06;;;;;;;7.90;3.05;;;;;;;18.16;58.06;102870.91;5100073;28;20047;-68
2023/05/19 04:21:31;;;;;;;7.90;3.10;;;;;;;18.43;57.25;102871.91;5064919;28;20089;-68
2023/05/19 04:24:00;;;;;;;8.30;2.97;;;;;;;18.69;56.20;102872.06;5099690;28;20032;-68
2023/05/19 04:26:29;;;;;;;7.45;3.00;;;;;;;18.49;55.89;102838.41;5082468;28;20024;-69
2023/05/19 04:28:55;;;;;;;9.18;3.33;;;;;;;18.85;55.75;102878.25;5081873;28;20200;-69
2023/05/19 04:31:21;;;;;;;6.10;3.00;;;;;;;19.05;55.19;102870.13;5100054;28;20208;-69
2023/05/19 04:33:49;;;;;;;7.28;3.35;;;;;;;19.14;54.63;102857.94;5101680;28;20025;-68
2023/05/19 04:36:17;;;;;;;5.55;2.60;;;;;;;19.37;54.23;102868.50;5108135;28;20474;-69
2023/05/19 04:38:44;;;;;;;5.78;2.33;;;;;;;19.50;53.79;102873.97;5082524;28;20047;-68
2023/05/19 04:41:10;;;;;;;6.05;2.55;;;;;;;19.49;53.43;102850.47;5081600;28;20024;-68
2023/05/19 04:43:40;;;;;;;7.90;2.97;;;;;;;19.65;53.31;102862.91;5099388;28;20027;-68
2023/05/19 04:46:12;;;;;;;5.97;2.50;;;;;;;19.80;53.31;102874.47;5099670;28;20050;-69
2023/05/19 04:48:38;;;;;;;5.63;2.70;;;;;;;20.13;51.95;102887.25;5081252;28;20123;-68
2023/05/19 04:51:04;;;;;;;5.50;2.58;;;;;;;20.26;51.85;102876.28;5098418;28;20321;-69
2023/05/19 04:53:30;;;;;;;8.90;2.47;;;;;;;20.36;51.62;102876.72;5098859;28;20024;-69
2023/05/19 04:55:56;;;;;;;6.70;2.50;;;;;;;20.48;51.43;102881.50;5099458;28;20725;-70
2023/05/19 04:58:25;;;;;;;5.85;2.40;;;;;;;20.50;51.31;102873.94;5099898;28;20032;-72
2023/05/19 05:00:51;;;;;;;8.38;2.50;;;;;;;20.49;51.32;102881.28;5081008;28;20048;-68
2023/05/19 05:03:17;;;;;;;5.45;2.40;;;;;;;20.55;51.00;102876.88;5099852;28;20042;-69
2023/05/19 05:05:43;;;;;;;4.05;2.38;;;;;;;20.51;51.01;102876.47;5081288;28;20012;-69
2023/05/19 05:08:13;;;;;;;5.40;2.42;;;;;;;20.48;51.06;102882.34;5081654;28;20161;-69
2023/05/19 05:10:39;;;;;;;4.70;2.10;;;;;;;20.42;51.39;102888.66;5093471;28;20043;-69
2023/05/19 05:13:04;;;;;;;7.38;2.45;;;;;;;20.45;51.35;102880.03;5088352;28;20032;-69
2023/05/19 05:15:30;;;;;;;5.93;2.35;;;;;;;20.38;51.64;102863.66;5083626;28;20031;-69
2023/05/19 05:17:56;;;;;;;6.35;2.53;;;;;;;20.41;51.84;102878.78;5065208;28;20032;-69
2023/05/19 05:20:22;;;;;;;11.68;2.53;;;;;;;20.37;52.26;102877.53;5099884;28;20039;-69
2023/05/19 05:22:48;;;;;;;5.13;2.20;;;;;;;20.46;52.40;102875.41;5064644;28;20399;-68
2023/05/19 05:25:15;;;;;;;7.57;2.30;;;;;;;20.48;52.40;102889.72;5100316;28;20032;-69
2023/05/19 05:27:40;;;;;;;5.22;2.40;;;;;;;20.38;52.59;102892.88;5098477;28;20073;-69
2023/05/19 05:30:06;;;;;;;5.97;2.80;;;;;;;20.15;53.17;102879.69;5098578;28;20028;-69
2023/05/19 05:32:32;;;;;;;8.00;2.53;;;;;;;20.14;53.79;102892.50;5061356;28;20056;-69
2023/05/19 05:34:58;;;;;;;4.75;2.33;;;;;;;19.86;54.64;102881.78;5076392;28;20028;-70
2023/05/19 05:37:23;;;;;;;6.65;2.50;;;;;;;19.74;55.68;102886.22;5080358;28;20020;-69
2023/05/19 05:39:49;;;;;;;8.95;2.10;;;;;;;19.24;58.22;102892.00;5098167;28;20385;-69
2023/05/19 05:42:15;;;;;;;4.93;2.08;;;;;;;19.04;59.19;102890.25;5079887;28;20031;-70
2023/05/19 05:44:40;;;;;;;6.18;2.30;;;;;;;18.91;59.93;102885.63;5080130;28;20028;-69
2023/05/19 05:47:06;;;;;;;5.35;2.38;;;;;;;19.03;60.06;102889.41;5098792;28;20031;-70
2023/05/19 05:49:35;;;;;;;5.03;2.00;;;;;;;19.12;60.36;102904.56;5080307;28;20042;-69
2023/05/19 05:52:02;;;;;;;9.73;2.38;;;;;;;19.10;60.20;102897.63;5068948;28;20032;-70
2023/05/19 05:54:28;;;;;;;5.90;1.83;;;;;;;19.10;60.40;102894.88;5094676;28;20012;-69
2023/05/19 05:56:53;;;;;;;7.00;2.05;;;;;;;19.14;60.02;102886.09;5100368;28;20082;-70
2023/05/19 05:59:19;;;;;;;5.20;2.10;;;;;;;19.28;59.97;102899.78;5080886;28;20044;-70
2023/05/19 06:01:44;;;;;;;6.43;2.40;;;;;;;19.27;60.21;102903.53;5078306;28;20088;-70
2023/05/19 06:04:10;;;;;;;6.47;2.28;;;;;;;19.21;60.19;102903.34;5095896;28;20035;-69
2023/05/19 06:06:36;;;;;;;4.32;1.83;;;;;;;19.44;59.66;102913.06;5078831;28;20027;-70
2023/05/19 06:09:03;;;;;;;5.28;2.17;;;;;;;19.59;59.21;102896.47;5079801;28;20233;-70
2023/05/19 06:11:28;;;;;;;7.50;1.95;;;;;;;19.79;58.63;102905.56;5080671;28;20044;-70
2023/05/19 06:13:54;;;;;;;8.48;2.20;;;;;;;19.75;58.64;102907.03;5079056;28;20114;-70
2023/05/19 06:16:19;;;;;;;7.50;2.00;;;;;;;19.77;58.63;102910.41;5080365;28;20390;-70
2023/05/19 06:18:45;;;;;;;3.10;1.73;;;;;;;19.59;59.31;102910.13;5080074;28;20024;-69
2023/05/19 06:21:12;;;;;;;6.40;2.30;;;;;;;19.75;58.81;102911.66;5045579;28;20066;-70
2023/05/19 06:23:38;;;;;;;4.90;2.00;;;;;;;19.38;58.74;102881.97;5063825;28;20023;-70
2023/05/19 06:26:04;;;;;;;4.40;2.03;;;;;;;19.41;58.79;102914.31;5098101;28;20028;-70
2023/05/19 06:28:30;;;;;;;6.90;1.88;;;;;;;19.19;58.84;102910.88;5063590;28;20031;-70
2023/05/19 06:30:56;;;;;;;4.97;1.77;;;;;;;19.09;58.52;102894.06;5076079;28;20042;-70
2023/05/19 06:33:21;;;;;;;5.50;1.90;;;;;;;18.98;59.18;102919.22;5098280;28;20039;-70
2023/05/19 06:35:47;;;;;;;8.13;2.30;;;;;;;18.89;59.70;102918.53;5105957;28;20032;-70
2023/05/19 06:38:12;;;;;;;6.30;2.10;;;;;;;18.74;59.44;102918.69;5104744;28;20088;-70
2023/05/19 06:40:38;;;;;;;7.80;2.40;;;;;;;18.46;60.33;102921.41;5080068;28;20036;-70
2023/05/19 06:43:03;;;;;;;6.18;2.08;;;;;;;18.31;62.09;102916.09;5080857;28;20539;-70
2023/05/19 06:45:29;;;;;;;10.23;2.33;;;;;;;18.58;61.26;102916.25;5059022;28;20542;-70
2023/05/19 06:47:57;;;;;;;3.88;2.10;;;;;;;18.61;61.54;102918.59;5062842;28;20043;-70
2023/05/19 06:50:22;;;;;;;5.28;2.05;;;;;;;18.91;60.97;102924.66;5079473;28;20040;-70
2023/05/19 06:52:48;;;;;;;5.15;2.13;;;;;;;19.12;60.28;102922.81;5061948;28;20039;-70
2023/05/19 06:55:13;;;;;;;5.88;2.20;;;;;;;19.46;59.28;102927.31;5097195;28;20034;-70
2023/05/19 06:57:39;;;;;;;5.90;2.20;;;;;;;19.79;58.39;102930.13;5079238;28;20058;-69
2023/05/19 07:00:08;;;;;;;5.60;2.13;;;;;;;20.00;58.11;102934.59;5078907;28;20521;-71
2023/05/19 07:02:33;;;;;;;4.65;1.95;;;;;;;20.00;57.44;102950.97;5080036;28;20031;-69
2023/05/19 07:04:59;;;;;;;7.32;2.30;;;;;;;20.08;56.93;102936.25;5077742;28;20395;-69
2023/05/19 07:07:25;;;;;;;4.53;2.03;;;;;;;19.86;56.52;102935.59;5074727;28;20395;-70
2023/05/19 07:09:51;;;;;;;6.35;2.25;;;;;;;20.07;56.29;102946.34;5079435;28;20031;-70
2023/05/19 07:12:16;;;;;;;5.82;2.00;;;;;;;20.17;55.78;102943.19;5062843;28;20028;-70
2023/05/19 07:14:42;;;;;;;5.07;2.25;;;;;;;20.26;56.02;102952.84;5080862;28;20036;-69
2023/05/19 07:17:07;;;;;;;6.00;2.20;;;;;;;19.75;55.64;102948.00;5101288;28;20429;-70
2023/05/19 07:19:33;;;;;;;7.25;1.75;;;;;;;19.24;56.32;102935.69;5066031;28;20038;-69
2023/05/19 07:21:58;;;;;;;6.78;2.22;;;;;;;19.06;56.02;102954.50;5050239;28;20031;-69
2023/05/19 07:24:24;;;;;;;10.15;3.35;;;;;;;18.31;61.00;102943.34;5084166;28;20115;-70
2023/05/19 07:26:49;;;;;;;11.95;3.63;;;;;;;17.75;65.16;102953.31;5085488;28;20036;-69
2023/05/19 07:29:15;;;;;;;14.90;4.30;;;;;;;17.07;69.29;102948.16;5102939;28;20035;-69
2023/05/19 07:31:40;;;;;;;12.00;3.90;;;;;;;16.65;72.68;102951.50;5082818;28;20035;-69
2023/05/19 07:34:05;;;;;;;14.95;4.18;;;;;;;16.42;74.41;102952.47;5065426;28;20028;-70
2023/05/19 07:36:31;;;;;;;11.52;3.72;;;;;;;16.40;74.99;102956.38;5100580;28;20069;-69
2023/05/19 07:38:57;;;;;;;14.23;4.53;;;;;;;16.33;75.94;102956.28;5081959;28;20486;-69
2023/05/19 07:41:22;;;;;;;10.02;3.83;;;;;;;16.25;76.83;102953.63;5100552;28;20089;-69
2023/05/19 07:43:48;;;;;;;13.98;3.95;;;;;;;16.20;77.25;102953.34;5083731;28;20123;-69
2023/05/19 07:46:14;;;;;;;11.07;3.28;;;;;;;16.34;76.74;102944.38;5082573;28;20028;-70
2023/05/19 07:48:39;;;;;;;12.32;4.00;;;;;;;16.42;77.22;102957.91;5082386;28;20036;-69
2023/05/19 07:51:08;;;;;;;12.27;3.58;;;;;;;16.19;77.63;102952.50;5048997;28;20466;-69
2023/05/19 07:53:35;;;;;;;11.35;3.80;;;;;;;16.07;78.76;102955.84;5081971;28;20024;-69
2023/05/19 07:56:00;;;;;;;11.15;4.15;;;;;;;16.28;78.72;102963.28;5100827;28;20035;-69
2023/05/19 07:58:26;;;;;;;11.30;3.47;;;;;;;16.58;77.49;102958.72;5082324;28;20024;-69
2023/05/19 08:00:52;;;;;;;12.68;3.97;;;;;;;16.51;77.14;102950.47;5100217;28;20140;-69
2023/05/19 08:03:17;;;;;;;12.60;3.70;;;;;;;16.69;76.93;102963.72;5082153;28;20091;-69
2023/05/19 08:05:43;;;;;;;10.48;3.60;;;;;;;16.56;77.81;102958.94;5048988;28;20478;-69
2023/05/19 08:08:08;;;;;;;10.90;3.53;;;;;;;16.74;76.64;102955.84;5081711;28;20032;-69
2023/05/19 08:10:34;;;;;;;12.25;3.53;;;;;;;16.86;76.62;102961.69;5081534;28;20047;-69
2023/05/19 08:12:59;;;;;;;12.98;4.05;;;;;;;16.74;76.41;102957.72;5100065;28;20028;-69
2023/05/19 08:15:25;;;;;;;12.48;3.67;;;;;;;16.77;76.83;102955.50;5081425;28;20461;-70
2023/05/19 08:17:51;;;;;;;11.43;3.50;;;;;;;16.66;77.77;102959.50;5083968;28;20043;-70
2023/05/19 08:20:16;;;;;;;15.18;3.28;;;;;;;16.82;77.65;102950.34;5075736;28;20050;-68
2023/05/19 08:22:42;;;;;;;12.63;3.42;;;;;;;16.62;78.83;102944.59;5072751;28;20032;-69
2023/05/19 08:25:08;;;;;;;9.40;3.42;;;;;;;16.64;78.86;102955.28;5081730;28;20036;-69
2023/05/19 08:27:35;;;;;;;14.13;3.70;;;;;;;16.70;78.39;102959.97;5063734;28;20048;-69
2023/05/19 08:30:00;;;;;;;9.77;3.45;;;;;;;16.79;78.20;102958.88;5064806;28;20115;-69
2023/05/19 08:32:26;;;;;;;8.60;3.05;;;;;;;16.70;78.72;102950.97;5064742;28;20081;-69
2023/05/19 08:34:51;;;;;;;13.70;3.78;;;;;;;16.56;79.56;102958.09;5064588;28;20028;-69
2023/05/19 08:37:18;;;;;;;7.15;3.15;;;;;;;16.91;78.30;102957.34;5080040;28;20509;-70
2023/05/19 08:39:43;;;;;;;10.38;2.95;;;;;;;16.95;77.91;102956.97;5063350;28;20031;-69
2023/05/19 08:42:10;;;;;;;13.32;3.40;;;;;;;16.72;78.86;102944.31;5064686;28;20390;-69
2023/05/19 08:44:36;;;;;;;10.13;3.30;;;;;;;16.32;79.83;102953.72;5081215;28;20028;-70
2023/05/19 08:47:11;;;;;;;13.15;4.22;;;;;;;16.20;81.05;102953.34;5081129;28;20028;-69
2023/05/19 08:49:42;;;;;;;;;;;;;;;15.87;81.83;102950.91;5097173;28;20031;-69
2023/05/19 08:52:23;;;;;;;14.20;4.55;;;;;;;15.81;83.91;102950.81;5099441;28;20418;-69
2023/05/19 08:55:08;;;;;;;14.43;4.00;;;;;;;15.57;85.95;102949.91;5102871;28;20039;-69
2023/05/19 08:57:35;;;;;;;12.70;4.28;;;;;;;15.44;87.09;102961.34;5106817;28;20020;-69
2023/05/19 09:00:03;;;;;;;10.30;4.18;;;;;;;15.36;87.76;102949.69;5084917;28;20044;-69
2023/05/19 09:02:30;;;;;;;13.68;4.10;;;;;;;15.27;88.33;102949.75;5064366;28;20089;-69
2023/05/19 09:04:56;;;;;;;10.45;3.97;;;;;;;15.31;88.81;102955.66;5061385;28;20044;-69
2023/05/19 09:07:24;;;;;;;10.07;4.05;;;;;;;15.13;88.65;102931.53;5098446;28;20395;-69
2023/05/19 09:09:49;;;;;;;12.32;4.28;;;;;;;15.17;89.18;102937.44;5083113;28;20050;-69
2023/05/19 09:12:15;;;;;;;11.45;4.30;;;;;;;15.32;89.31;102962.78;5088412;28;20032;-69
2023/05/19 09:14:40;;;;;;;13.48;5.20;;;;;;;15.47;89.54;102961.00;5100613;28;20546;-69
2023/05/19 09:17:06;;;;;;;11.68;4.40;;;;;;;15.45;90.11;102960.31;5063818;28;20035;-69
2023/05/19 09:19:31;;;;;;;9.10;3.97;;;;;;;15.41;90.07;102961.72;5098091;28;20455;-69
2023/05/19 09:22:04;;;;;;;14.07;4.47;;;;;;;15.28;90.42;102961.44;5098502;28;20107;-69
2023/05/19 09:24:30;;;;;;;13.88;4.68;;;;;;;15.17;91.35;102962.69;5080178;28;20060;-69
2023/05/19 09:26:56;;;;;;;12.55;5.30;;;;;;;15.23;91.27;102956.56;5080615;28;20375;-69
2023/05/19 09:29:21;;;;;;;16.42;5.30;;;;;;;15.15;91.99;102955.75;5079740;28;20039;-69
2023/05/19 09:31:51;;;;;;;12.95;5.07;;;;;;;15.33;91.04;102959.06;5097206;28;20055;-69
2023/05/19 09:34:17;;;;;;;12.50;4.60;;;;;;;15.26;91.84;102953.50;5079951;28;20111;-69
2023/05/19 09:36:43;;;;;;;11.48;4.45;;;;;;;15.33;92.64;102961.78;5098043;28;20045;-69
2023/05/19 09:39:15;;;;;;;14.20;4.78;;;;;;;15.14;92.68;102922.38;5079900;28;20032;-69
2023/05/19 09:41:41;;;;;;;13.80;5.40;;;;;;;15.32;92.96;102961.94;5098152;28;20436;-69
2023/05/19 09:44:12;;;;;;;11.20;3.72;;;;;;;15.55;91.92;102959.25;5097712;28;20088;-69
2023/05/19 09:46:37;;;;;;;10.20;3.70;;;;;;;15.70;91.05;102955.63;5079647;28;20028;-69
2023/05/19 09:49:09;;;;;;;8.63;3.00;;;;;;;15.79;89.02;102931.13;5096522;28;20049;-69
2023/05/19 09:51:40;;;;;;;6.18;2.65;;;;;;;16.20;86.05;102935.19;5097952;28;20048;-69
2023/05/19 09:54:08;;;;;;;6.32;2.90;;;;;;;16.23;82.84;102936.69;5097730;28;20025;-69
2023/05/19 09:56:34;;;;;;;4.85;2.47;;;;;;;16.51;79.95;102938.78;5097260;28;20022;-69
2023/05/19 09:59:04;;;;;;;11.98;3.28;;;;;;;16.57;78.48;102948.91;5062154;28;20039;-69
2023/05/19 10:01:32;;;;;;;9.27;2.90;;;;;;;16.79;78.20;102950.72;5096851;28;20036;-70
2023/05/19 10:03:59;;;;;;;9.88;2.97;;;;;;;16.76;78.30;102947.53;5082306;28;20039;-69
2023/05/19 10:06:25;;;;;;;7.97;2.58;;;;;;;16.58;77.41;102912.53;5084408;28;20032;-69
2023/05/19 10:08:51;;;;;;;7.53;2.97;;;;;;;16.73;76.16;102945.16;5080371;28;20032;-69
2023/05/19 10:11:17;;;;;;;9.60;3.30;;;;;;;16.68;75.61;102938.38;5079738;28;20031;-69
2023/05/19 10:13:45;;;;;;;7.90;3.00;;;;;;;16.75;75.37;102935.78;5097813;28;20034;-69
2023/05/19 10:16:12;;;;;;;8.77;2.47;;;;;;;16.62;74.33;102936.44;5098073;28;20027;-69
2023/05/19 10:18:38;;;;;;;7.65;2.40;;;;;;;16.70;72.15;102940.94;5079241;28;20020;-69
2023/05/19 10:21:06;;;;;;;5.95;2.58;;;;;;;16.89;72.30;102937.69;5079466;28;20039;-69
2023/05/19 10:23:31;;;;;;;8.13;2.67;;;;;;;16.73;71.87;102931.56;5062013;28;20032;-70
2023/05/19 10:26:00;;;;;;;6.70;2.67;;;;;;;16.81;71.47;102935.03;5062090;28;20108;-69
2023/05/19 10:28:37;;;;;;;6.10;2.80;;;;;;;16.79;70.63;102939.00;5078217;28;20383;-69
2023/05/19 10:31:06;;;;;;;8.15;2.40;;;;;;;16.65;70.54;102940.63;5094130;28;20078;-70
2023/05/19 10:33:52;;;;;;;6.47;2.20;;;;;;;16.80;69.18;102936.09;5096448;28;20036;-69
2023/05/19 10:36:46;;;;;;;5.15;2.05;;;;;;;16.73;68.09;102940.56;5095317;28;20035;-70
2023/05/19 10:39:26;;;;;;;6.38;2.20;;;;;;;16.59;65.47;102923.22;5081071;28;20020;-70
2023/05/19 10:42:04;;;;;;;6.18;2.30;;;;;;;16.81;65.80;102943.19;5096403;28;20028;-70
2023/05/19 10:44:49;;;;;;;9.68;2.90;;;;;;;16.93;66.16;102946.31;5076686;28;20024;-69
2023/05/19 10:47:24;;;;;;;5.72;2.75;;;;;;;16.71;70.63;102945.34;5081738;28;20096;-69
2023/05/19 10:49:54;;;;;;;4.25;2.03;;;;;;;16.80;67.10;102943.41;5078910;28;20479;-69
2023/05/19 10:52:22;;;;;;;4.40;1.80;;;;;;;16.95;63.40;102946.94;5078430;28;20109;-69
2023/05/19 10:54:47;;;;;;;6.38;1.80;;;;;;;17.14;63.00;102950.94;5058204;28;20031;-70
2023/05/19 10:57:15;;;;;;;3.80;1.70;;;;;;;17.25;62.53;102944.16;5094333;28;20028;-69
2023/05/19 10:59:40;;;;;;;5.43;1.80;;;;;;;17.14;62.64;102946.34;5065123;28;20052;-70
2023/05/19 11:02:07;;;;;;;8.07;3.50;;;;;;;16.96;64.91;102945.09;5085982;28;20039;-70
2023/05/19 11:04:46;;;;;;;9.82;4.20;;;;;;;16.78;69.89;102935.41;5102870;28;20047;-70
2023/05/19 11:07:23;;;;;;;4.63;2.15;;;;;;;16.72;64.45;102938.88;5096433;28;20036;-70
2023/05/19 11:09:52;;;;;;;5.25;2.20;;;;;;;16.97;63.51;102941.31;5061613;28;20040;-70
2023/05/19 11:12:21;;;;;;;5.10;2.10;;;;;;;17.10;62.44;102936.06;5096199;28;20032;-69
2023/05/19 11:14:47;;;;;;;2.72;1.60;;;;;;;16.85;60.83;102933.66;5078003;28;20024;-69
2023/05/19 11:17:14;;;;;;;5.30;1.90;;;;;;;17.04;59.37;102944.97;5096212;28;20547;-69
2023/05/19 11:19:51;;;;;;;3.78;1.70;;;;;;;17.24;57.75;102937.88;5077692;28;20059;-70
2023/05/19 11:22:16;;;;;;;4.55;1.52;;;;;;;17.28;56.64;102932.91;5077865;28;20058;-69
2023/05/19 11:24:44;;;;;;;5.18;2.28;;;;;;;17.25;60.73;102938.72;5077704;28;20032;-69
2023/05/19 11:27:32;;;;;;;6.90;2.35;;;;;;;16.92;62.92;102939.19;5078260;28;20023;-70
2023/05/19 11:30:00;;;;;;;5.15;2.00;;;;;;;17.12;60.17;102944.88;5077811;28;20020;-69